createdAt,value
2023-12-19T00:01:09.943Z,11.27
2023-12-19T00:03:43.082Z,13.02
2023-12-19T00:06:10.254Z,13.45
2023-12-19T00:08:38.104Z,10.93
2023-12-19T00:11:06.109Z,10.75
2023-12-19T00:13:33.951Z,9.95
2023-12-19T00:16:01.675Z,11.77
2023-12-19T00:18:29.261Z,12.38
2023-12-19T00:20:56.527Z,11.80
2023-12-19T00:23:24.091Z,10.65
2023-12-19T00:25:51.285Z,13.32
2023-12-19T00:28:18.726Z,11.60
2023-12-19T00:30:45.948Z,10.23
2023-12-19T00:33:13.581Z,10.65
2023-12-19T00:35:40.751Z,11.75
2023-12-19T00:38:08.171Z,10.25
2023-12-19T00:40:35.350Z,13.07
2023-12-19T00:43:02.847Z,11.77
2023-12-19T00:45:30.079Z,10.93
2023-12-19T00:47:57.533Z,10.27
2023-12-19T00:50:24.758Z,11.25
2023-12-19T00:52:52.128Z,11.38
2023-12-19T00:55:19.244Z,12.45
2023-12-19T00:57:46.680Z,12.48
2023-12-19T01:00:14.414Z,11.23
2023-12-19T01:02:42.128Z,9.88
2023-12-19T01:05:09.760Z,11.45
2023-12-19T01:07:38.524Z,10.50
2023-12-19T01:10:06.238Z,15.00
2023-12-19T01:12:33.657Z,14.50
2023-12-19T01:15:00.820Z,11.52
2023-12-19T01:17:28.332Z,9.48
2023-12-19T01:19:57.151Z,10.25
2023-12-19T01:22:26.179Z,9.93
2023-12-19T01:24:53.333Z,11.23
2023-12-19T01:27:20.773Z,12.68
2023-12-19T01:29:48.139Z,8.98
2023-12-19T01:32:15.589Z,9.23
2023-12-19T01:34:43.007Z,8.88
2023-12-19T01:37:10.479Z,10.05
2023-12-19T01:39:38.190Z,10.68
2023-12-19T01:42:05.971Z,9.52
2023-12-19T01:44:33.069Z,10.88
2023-12-19T01:47:00.499Z,8.88
2023-12-19T01:49:27.869Z,9.35
2023-12-19T01:51:55.429Z,10.48
2023-12-19T01:54:22.857Z,9.75
2023-12-19T01:56:50.568Z,9.18
2023-12-19T01:59:18.172Z,9.90
2023-12-19T02:01:45.744Z,10.23
2023-12-19T02:04:13.718Z,9.45
2023-12-19T02:06:41.221Z,8.10
2023-12-19T02:09:08.647Z,9.43
2023-12-19T02:11:36.136Z,10.15
2023-12-19T02:14:03.346Z,9.00
2023-12-19T02:16:30.764Z,8.65
2023-12-19T02:19:05.969Z,8.07
2023-12-19T02:21:34.151Z,9.25
2023-12-19T02:24:01.762Z,7.88
2023-12-19T02:26:29.963Z,7.70
2023-12-19T02:28:57.764Z,7.40
2023-12-19T02:31:25.399Z,9.07
2023-12-19T02:33:52.748Z,10.73
2023-12-19T02:36:20.478Z,8.32
2023-12-19T02:38:47.747Z,8.30
2023-12-19T02:41:15.136Z,8.07
2023-12-19T02:43:53.633Z,7.28
2023-12-19T02:46:24.037Z,10.15
2023-12-19T02:48:51.748Z,10.45
2023-12-19T02:51:21.363Z,7.82
2023-12-19T02:53:49.154Z,7.65
2023-12-19T02:56:16.610Z,9.45
2023-12-19T02:58:44.007Z,8.70
2023-12-19T03:01:11.574Z,7.07
2023-12-19T03:03:42.243Z,7.95
2023-12-19T03:06:10.073Z,8.23
2023-12-19T03:08:37.649Z,6.13
2023-12-19T03:11:05.285Z,6.93
2023-12-19T03:13:32.597Z,6.85
2023-12-19T03:16:00.398Z,6.55
2023-12-19T03:18:27.798Z,7.13
2023-12-19T03:20:56.316Z,7.20
2023-12-19T03:23:23.471Z,8.77
2023-12-19T03:25:51.079Z,7.75
2023-12-19T03:28:18.186Z,8.25
2023-12-19T03:30:45.702Z,8.13
2023-12-19T03:33:12.906Z,7.50
2023-12-19T03:35:40.410Z,6.30
2023-12-19T03:38:07.520Z,7.28
2023-12-19T03:40:36.880Z,6.20
2023-12-19T03:43:04.420Z,6.00
2023-12-19T03:45:31.940Z,6.70
2023-12-19T03:47:59.409Z,9.75
2023-12-19T03:50:26.970Z,9.57
2023-12-19T03:52:54.117Z,6.65
2023-12-19T03:55:21.593Z,5.43
2023-12-19T03:57:48.802Z,5.53
2023-12-19T04:00:16.280Z,5.32
2023-12-19T04:02:43.678Z,5.25
2023-12-19T04:05:11.284Z,6.13
2023-12-19T04:07:38.425Z,5.70
2023-12-19T04:10:06.397Z,7.32
2023-12-19T04:12:33.946Z,4.93
2023-12-19T04:15:01.361Z,6.75
2023-12-19T04:17:28.697Z,5.28
2023-12-19T04:19:56.224Z,7.50
2023-12-19T04:22:23.399Z,5.72
2023-12-19T04:24:51.087Z,6.70
2023-12-19T04:27:18.276Z,8.15
2023-12-19T04:29:47.127Z,6.80
2023-12-19T04:32:15.192Z,9.50
2023-12-19T04:34:42.741Z,5.97
2023-12-19T04:37:09.956Z,7.88
2023-12-19T04:39:37.515Z,7.68
2023-12-19T04:42:08.576Z,8.10
2023-12-19T04:44:36.200Z,7.38
2023-12-19T04:47:03.944Z,9.85
2023-12-19T04:49:31.552Z,7.57
2023-12-19T04:51:58.795Z,5.25
2023-12-19T04:54:26.162Z,6.57
2023-12-19T04:56:53.630Z,6.20
2023-12-19T04:59:21.150Z,6.05
2023-12-19T05:01:48.374Z,6.57
2023-12-19T05:04:15.953Z,6.80
2023-12-19T05:06:43.771Z,5.55
2023-12-19T05:09:11.242Z,9.27
2023-12-19T05:11:38.346Z,6.72
2023-12-19T05:14:05.928Z,7.40
2023-12-19T05:16:33.075Z,8.00
2023-12-19T05:19:00.691Z,8.45
2023-12-19T05:21:27.874Z,5.82
2023-12-19T05:23:55.493Z,6.65
2023-12-19T05:26:22.709Z,6.13
2023-12-19T05:28:51.539Z,7.40
2023-12-19T05:31:19.836Z,9.15
2023-12-19T05:33:47.537Z,9.35
2023-12-19T05:36:15.061Z,7.85
2023-12-19T05:38:42.521Z,7.63
2023-12-19T05:41:16.019Z,6.32
2023-12-19T05:43:44.420Z,8.52
2023-12-19T05:46:11.816Z,8.63
2023-12-19T05:48:39.418Z,10.40
2023-12-19T05:51:06.769Z,9.15
2023-12-19T05:53:34.343Z,8.82
2023-12-19T05:56:01.448Z,9.05
2023-12-19T05:58:29.027Z,9.98
2023-12-19T06:00:57.484Z,9.55
2023-12-19T06:03:25.364Z,9.45
2023-12-19T06:05:52.732Z,8.07
2023-12-19T06:08:21.580Z,8.35
2023-12-19T06:10:48.828Z,8.25
2023-12-19T06:13:16.324Z,8.38
2023-12-19T06:15:43.583Z,7.65
2023-12-19T06:18:11.388Z,7.70
2023-12-19T06:20:38.605Z,8.13
2023-12-19T06:23:06.040Z,7.57
2023-12-19T06:25:34.155Z,6.18
2023-12-19T06:28:01.798Z,7.88
2023-12-19T06:30:32.258Z,9.60
2023-12-19T06:33:02.815Z,8.25
2023-12-19T06:35:31.370Z,7.93
2023-12-19T06:37:58.798Z,7.90
2023-12-19T06:40:26.055Z,7.95
2023-12-19T06:42:53.563Z,9.63
2023-12-19T06:45:20.812Z,8.73
2023-12-19T06:47:48.350Z,11.40
2023-12-19T06:50:16.283Z,10.30
2023-12-19T06:52:43.597Z,11.23
2023-12-19T06:55:14.294Z,11.02
2023-12-19T06:57:41.466Z,9.18
2023-12-19T07:00:09.390Z,8.13
2023-12-19T07:02:39.828Z,10.75
2023-12-19T07:05:07.637Z,9.63
2023-12-19T07:07:34.897Z,9.75
2023-12-19T07:10:02.863Z,9.48
2023-12-19T07:12:30.572Z,14.55
2023-12-19T07:14:58.054Z,12.10
2023-12-19T07:17:25.366Z,10.77
2023-12-19T07:19:53.093Z,10.30
2023-12-19T07:22:20.348Z,10.85
2023-12-19T07:24:47.825Z,10.70
2023-12-19T07:27:14.979Z,8.93
2023-12-19T07:29:42.409Z,8.80
2023-12-19T07:32:10.539Z,8.32
2023-12-19T07:34:38.057Z,9.93
2023-12-19T07:37:05.357Z,10.25
2023-12-19T07:39:33.593Z,10.90
2023-12-19T07:42:00.827Z,7.82
2023-12-19T07:44:28.219Z,10.48
2023-12-19T07:46:55.464Z,10.13
2023-12-19T07:49:23.016Z,8.50
2023-12-19T07:51:50.261Z,8.80
2023-12-19T07:54:18.502Z,8.25
2023-12-19T07:56:45.775Z,11.32
2023-12-19T07:59:14.519Z,9.60
2023-12-19T08:01:42.770Z,9.88
2023-12-19T08:04:10.661Z,12.13
2023-12-19T08:06:37.982Z,9.38
2023-12-19T08:09:05.706Z,11.25
2023-12-19T08:11:32.967Z,10.75
2023-12-19T08:14:00.421Z,8.85
2023-12-19T08:16:27.558Z,9.93
2023-12-19T08:18:55.097Z,9.20
2023-12-19T08:21:22.351Z,10.88
2023-12-19T08:23:49.964Z,10.75
2023-12-19T08:26:17.222Z,9.70
2023-12-19T08:28:44.813Z,10.07
2023-12-19T08:31:12.391Z,8.77
2023-12-19T08:33:42.765Z,9.13
2023-12-19T08:36:32.356Z,9.45
2023-12-19T08:38:57.753Z,9.60
2023-12-19T08:41:25.663Z,8.90
2023-12-19T08:43:53.610Z,13.30
2023-12-19T08:46:21.360Z,11.43
2023-12-19T08:48:49.878Z,11.40
2023-12-19T08:51:18.822Z,9.85
2023-12-19T08:53:46.362Z,10.10
2023-12-19T08:56:13.463Z,11.35
2023-12-19T08:58:40.963Z,10.88
2023-12-19T09:01:08.306Z,10.38
2023-12-19T09:03:35.871Z,8.18
2023-12-19T09:06:03.092Z,10.70
2023-12-19T09:08:30.524Z,9.70
2023-12-19T09:10:57.628Z,10.23
2023-12-19T09:13:25.102Z,7.28
2023-12-19T09:15:52.287Z,6.88
2023-12-19T09:18:19.904Z,6.63
2023-12-19T09:20:47.193Z,8.93
2023-12-19T09:23:14.602Z,6.05
2023-12-19T09:25:41.790Z,7.80
2023-12-19T09:28:09.308Z,7.53
2023-12-19T09:30:36.622Z,6.85
2023-12-19T09:33:04.496Z,6.95
2023-12-19T09:35:31.817Z,8.10
2023-12-19T09:38:02.674Z,8.63
2023-12-19T09:40:33.795Z,7.68
2023-12-19T09:43:01.340Z,10.50
2023-12-19T09:45:28.858Z,9.02
2023-12-19T09:48:04.001Z,15.70
2023-12-19T09:50:37.737Z,8.07
2023-12-19T09:53:09.061Z,7.07
2023-12-19T09:55:43.661Z,7.97
2023-12-19T09:58:14.540Z,8.00
2023-12-19T10:00:46.878Z,8.52
2023-12-19T10:03:14.823Z,8.02
2023-12-19T10:05:45.097Z,8.55
2023-12-19T10:08:14.688Z,7.10
2023-12-19T10:10:57.985Z,6.43
2023-12-19T10:13:28.303Z,8.13
2023-12-19T10:16:29.128Z,8.82
2023-12-19T10:18:57.291Z,8.27
2023-12-19T10:21:26.230Z,8.27
2023-12-19T10:23:53.617Z,12.73
2023-12-19T10:26:29.421Z,8.30
2023-12-19T10:28:58.752Z,8.00
2023-12-19T10:31:26.126Z,7.78
2023-12-19T10:33:57.328Z,9.43
2023-12-19T10:36:26.810Z,8.13
2023-12-19T10:38:59.110Z,7.03
2023-12-19T10:41:34.025Z,6.80
2023-12-19T10:44:02.680Z,8.02
2023-12-19T10:46:34.524Z,6.15
2023-12-19T10:49:03.675Z,6.53
2023-12-19T10:51:40.814Z,6.00
2023-12-19T10:54:10.789Z,8.38
2023-12-19T10:56:55.743Z,6.70
2023-12-19T10:59:33.909Z,6.97
2023-12-19T11:02:11.277Z,5.88
2023-12-19T11:04:43.223Z,5.95
2023-12-19T11:07:14.342Z,6.43
2023-12-19T11:09:44.980Z,7.25
2023-12-19T11:12:13.428Z,7.13
2023-12-19T11:14:42.044Z,5.88
2023-12-19T11:17:22.179Z,5.93
2023-12-19T11:20:02.594Z,5.70
2023-12-19T11:22:54.283Z,6.10
2023-12-19T11:25:39.252Z,6.00
2023-12-19T11:28:07.322Z,7.70
2023-12-19T11:30:40.610Z,7.93
2023-12-19T11:33:09.420Z,6.28
2023-12-19T11:35:37.206Z,7.05
2023-12-19T11:38:16.805Z,5.43
2023-12-19T11:40:47.248Z,6.43
2023-12-19T11:43:30.389Z,6.38
2023-12-19T11:46:12.031Z,6.80
2023-12-19T11:48:48.458Z,7.30
2023-12-19T11:51:46.558Z,8.15
2023-12-19T11:54:17.086Z,8.07
2023-12-19T11:56:45.697Z,5.85
2023-12-19T11:59:15.875Z,5.95
2023-12-19T12:01:44.933Z,7.07
2023-12-19T12:04:12.861Z,7.97
2023-12-19T12:06:40.555Z,6.22
2023-12-19T12:09:08.136Z,5.22
2023-12-19T12:11:54.558Z,7.40
2023-12-19T12:14:23.552Z,6.60
2023-12-19T12:16:50.781Z,9.95
2023-12-19T12:19:22.739Z,5.70
2023-12-19T12:21:51.564Z,10.30
2023-12-19T12:24:31.651Z,8.52
2023-12-19T12:27:13.162Z,8.82
2023-12-19T12:29:41.917Z,8.82
2023-12-19T12:32:09.350Z,9.02
2023-12-19T12:34:36.922Z,11.13
2023-12-19T12:37:04.320Z,10.10
2023-12-19T12:39:32.412Z,7.40
2023-12-19T12:42:05.159Z,7.97
2023-12-19T12:44:32.880Z,5.57
2023-12-19T12:47:01.183Z,7.32
2023-12-19T12:49:30.366Z,6.63
2023-12-19T12:51:59.909Z,9.75
2023-12-19T12:54:27.490Z,13.68
2023-12-19T12:56:54.769Z,7.75
2023-12-19T12:59:26.488Z,7.93
2023-12-19T13:01:53.998Z,9.05
2023-12-19T13:04:21.909Z,6.15
2023-12-19T13:06:49.332Z,5.70
2023-12-19T13:09:21.142Z,5.20
2023-12-19T13:11:51.906Z,5.72
2023-12-19T13:14:19.617Z,6.20
2023-12-19T13:16:47.212Z,4.03
2023-12-19T13:19:16.278Z,3.88
2023-12-19T13:21:43.866Z,4.82
2023-12-19T13:24:11.366Z,4.10
2023-12-19T13:26:38.599Z,5.03
2023-12-19T13:29:07.574Z,5.43
2023-12-19T13:31:36.155Z,5.38
2023-12-19T13:34:06.218Z,5.68
2023-12-19T13:36:33.595Z,5.85
2023-12-19T13:39:01.254Z,8.90
2023-12-19T13:41:28.392Z,6.28
2023-12-19T13:43:56.689Z,6.97
2023-12-19T13:46:25.154Z,8.07
2023-12-19T13:48:53.658Z,6.50
2023-12-19T13:51:21.799Z,5.97
2023-12-19T13:53:49.491Z,7.00
2023-12-19T13:56:16.712Z,9.30
2023-12-19T13:58:44.133Z,8.02
2023-12-19T14:01:11.420Z,7.75
2023-12-19T14:03:39.742Z,7.68
2023-12-19T14:06:08.066Z,8.02
2023-12-19T14:08:46.143Z,8.80
2023-12-19T14:11:13.435Z,8.30
2023-12-19T14:13:40.862Z,8.00
2023-12-19T14:16:08.192Z,7.65
2023-12-19T14:18:35.813Z,8.50
2023-12-19T14:21:03.215Z,8.93
2023-12-19T14:23:33.312Z,6.43
2023-12-19T14:26:00.620Z,6.45
2023-12-19T14:28:28.509Z,7.05
2023-12-19T14:30:56.474Z,5.60
2023-12-19T14:33:24.229Z,6.93
2023-12-19T14:35:51.510Z,6.60
2023-12-19T14:38:20.577Z,8.95
2023-12-19T14:40:49.485Z,9.18
2023-12-19T14:43:18.130Z,11.45
2023-12-19T14:45:45.823Z,9.30
2023-12-19T14:48:13.519Z,7.60
2023-12-19T14:50:40.834Z,9.70
2023-12-19T14:53:08.296Z,6.88
2023-12-19T14:55:36.394Z,7.38
2023-12-19T14:58:04.440Z,6.68
2023-12-19T15:00:31.903Z,7.43
2023-12-19T15:02:59.347Z,8.32
2023-12-19T15:05:27.440Z,6.80
2023-12-19T15:07:55.588Z,8.00
2023-12-19T15:10:23.752Z,7.57
2023-12-19T15:12:51.258Z,13.55
2023-12-19T15:15:20.185Z,9.05
2023-12-19T15:17:48.301Z,9.75
2023-12-19T15:20:15.947Z,10.50
2023-12-19T15:22:43.428Z,11.95
2023-12-19T15:25:11.084Z,10.73
2023-12-19T15:27:38.731Z,10.82
2023-12-19T15:30:08.971Z,10.13
2023-12-19T15:32:37.311Z,12.07
2023-12-19T15:35:05.490Z,12.55
2023-12-19T15:37:33.367Z,10.07
2023-12-19T15:40:00.773Z,11.48
2023-12-19T15:42:28.332Z,9.82
2023-12-19T15:44:55.492Z,11.50
2023-12-19T15:47:22.875Z,11.38
2023-12-19T15:49:50.198Z,11.60
2023-12-19T15:52:17.823Z,10.20
2023-12-19T15:54:47.072Z,10.80
2023-12-19T15:57:15.515Z,12.18
2023-12-19T15:59:42.719Z,14.45
2023-12-19T16:02:11.779Z,10.60
2023-12-19T16:04:44.396Z,8.48
2023-12-19T16:07:13.489Z,11.13
2023-12-19T16:09:41.527Z,10.52
2023-12-19T16:12:10.298Z,9.75
2023-12-19T16:14:37.570Z,8.35
2023-12-19T16:17:05.214Z,8.48
2023-12-19T16:19:32.735Z,7.85
2023-12-19T16:22:00.302Z,8.40
2023-12-19T16:24:27.618Z,9.02
2023-12-19T16:26:55.228Z,10.88
2023-12-19T16:29:22.340Z,9.68
2023-12-19T16:32:06.578Z,9.68
2023-12-19T16:34:34.245Z,8.23
2023-12-19T16:37:02.074Z,10.27
2023-12-19T16:39:29.236Z,9.30
2023-12-19T16:41:56.781Z,10.00
2023-12-19T16:44:23.958Z,12.13
2023-12-19T16:46:51.418Z,12.98
2023-12-19T16:49:18.780Z,12.73
2023-12-19T16:51:46.754Z,14.88
2023-12-19T16:54:14.094Z,15.20
2023-12-19T16:56:41.643Z,15.52
2023-12-19T16:59:09.143Z,14.90
2023-12-19T17:01:36.749Z,14.75
2023-12-19T17:04:04.277Z,13.13
2023-12-19T17:06:32.735Z,13.95
2023-12-19T17:09:00.154Z,13.45
2023-12-19T17:11:28.948Z,12.68
2023-12-19T17:13:57.103Z,12.20
2023-12-19T17:16:24.826Z,11.40
2023-12-19T17:18:52.393Z,14.93
2023-12-19T17:21:19.917Z,8.70
2023-12-19T17:23:51.671Z,11.50
2023-12-19T17:26:25.420Z,10.93
2023-12-19T17:28:52.914Z,10.35
2023-12-19T17:31:20.775Z,9.43
2023-12-19T17:33:48.203Z,11.38
2023-12-19T17:36:22.192Z,10.73
2023-12-19T17:38:49.477Z,11.77
2023-12-19T17:41:16.963Z,8.68
2023-12-19T17:43:44.979Z,11.32
2023-12-19T17:46:12.664Z,8.73
2023-12-19T17:48:39.938Z,10.23
2023-12-19T17:51:07.776Z,11.07
2023-12-19T17:53:34.989Z,13.52
2023-12-19T17:56:02.499Z,11.15
2023-12-19T17:58:29.675Z,13.10
2023-12-19T18:00:58.057Z,11.23
2023-12-19T18:03:29.100Z,11.55
2023-12-19T18:05:58.737Z,12.25
2023-12-19T18:08:28.312Z,11.30
2023-12-19T18:10:57.215Z,13.65
2023-12-19T18:13:24.465Z,11.95
2023-12-19T18:15:52.022Z,11.60
2023-12-19T18:18:20.799Z,11.02
2023-12-19T18:20:49.219Z,10.05
2023-12-19T18:23:16.489Z,11.45
2023-12-19T18:25:44.105Z,8.30
2023-12-19T18:28:11.380Z,12.25
2023-12-19T18:30:38.920Z,11.43
2023-12-19T18:33:06.252Z,9.82
2023-12-19T18:35:33.805Z,9.02
2023-12-19T18:38:00.973Z,9.75
2023-12-19T18:40:28.745Z,10.10
2023-12-19T18:42:57.054Z,11.70
2023-12-19T18:45:24.656Z,10.98
2023-12-19T18:47:52.676Z,10.70
2023-12-19T18:50:20.552Z,11.02
2023-12-19T18:52:47.836Z,12.48
2023-12-19T18:55:15.776Z,11.30
2023-12-19T18:57:43.146Z,9.27
2023-12-19T19:00:11.352Z,12.15
2023-12-19T19:02:39.192Z,10.30
2023-12-19T19:05:06.928Z,11.75
2023-12-19T19:07:34.368Z,13.13
2023-12-19T19:10:03.026Z,13.55
2023-12-19T19:12:30.320Z,13.75
2023-12-19T19:14:57.810Z,14.68
2023-12-19T19:17:25.660Z,11.52
2023-12-19T19:19:54.330Z,13.73
2023-12-19T19:22:21.630Z,14.52
2023-12-19T19:24:49.185Z,13.82
2023-12-19T19:27:16.443Z,11.68
2023-12-19T19:29:45.082Z,15.10
2023-12-19T19:32:15.438Z,10.73
2023-12-19T19:34:44.684Z,12.90
2023-12-19T19:37:15.110Z,11.68
2023-12-19T19:39:44.470Z,15.32
2023-12-19T19:42:11.916Z,14.23
2023-12-19T19:44:39.369Z,11.85
2023-12-19T19:47:08.797Z,13.07
2023-12-19T19:49:36.521Z,13.85
2023-12-19T19:52:04.018Z,14.52
2023-12-19T19:54:32.671Z,13.27
2023-12-19T19:56:59.966Z,11.15
2023-12-19T19:59:27.512Z,12.75
2023-12-19T20:01:54.855Z,11.25
2023-12-19T20:04:22.726Z,12.35
2023-12-19T20:06:50.039Z,12.45
2023-12-19T20:09:17.611Z,14.13
2023-12-19T20:11:46.417Z,11.63
2023-12-19T20:14:14.067Z,13.52
2023-12-19T20:16:41.306Z,11.18
2023-12-19T20:19:08.917Z,12.98
2023-12-19T20:21:36.159Z,14.07
2023-12-19T20:24:05.554Z,16.17
2023-12-19T20:26:33.158Z,12.52
2023-12-19T20:29:00.902Z,12.32
2023-12-19T20:31:28.951Z,11.75
2023-12-19T20:33:56.593Z,11.18
2023-12-19T20:36:24.599Z,10.80
2023-12-19T20:38:52.031Z,11.68
2023-12-19T20:41:25.274Z,12.60
2023-12-19T20:43:56.575Z,11.05
2023-12-19T20:46:24.001Z,11.27
2023-12-19T20:48:51.663Z,11.95
2023-12-19T20:51:19.388Z,10.05
2023-12-19T20:53:46.969Z,10.90
2023-12-19T20:56:14.161Z,11.27
2023-12-19T20:58:41.913Z,11.10
2023-12-19T21:01:09.810Z,9.68
2023-12-19T21:03:37.636Z,11.35
2023-12-19T21:06:05.255Z,9.25
2023-12-19T21:08:32.811Z,9.75
2023-12-19T21:11:01.315Z,10.93
2023-12-19T21:13:29.854Z,8.30
2023-12-19T21:16:01.714Z,9.35
2023-12-19T21:18:29.492Z,8.25
2023-12-19T21:20:56.719Z,9.57
2023-12-19T21:23:25.450Z,10.00
2023-12-19T21:25:53.008Z,10.13
2023-12-19T21:28:20.526Z,9.52
2023-12-19T21:30:48.059Z,8.98
2023-12-19T21:33:15.651Z,7.82
2023-12-19T21:35:44.880Z,8.70
2023-12-19T21:38:15.885Z,9.40
2023-12-19T21:40:43.934Z,9.85
2023-12-19T21:43:11.382Z,10.65
2023-12-19T21:45:38.616Z,12.38
2023-12-19T21:48:06.896Z,9.90
2023-12-19T21:50:34.228Z,13.02
2023-12-19T21:53:01.950Z,14.30
2023-12-19T21:55:29.230Z,11.95
2023-12-19T21:57:56.746Z,13.02
2023-12-19T22:00:23.906Z,10.30
2023-12-19T22:02:51.533Z,12.35
2023-12-19T22:05:18.852Z,11.90
2023-12-19T22:07:46.637Z,13.40
2023-12-19T22:10:14.079Z,12.23
2023-12-19T22:12:44.478Z,13.18
2023-12-19T22:15:12.503Z,12.18
2023-12-19T22:17:40.021Z,16.30
2023-12-19T22:20:09.758Z,10.65
2023-12-19T22:22:37.376Z,9.65
2023-12-19T22:25:04.785Z,9.32
2023-12-19T22:27:32.183Z,9.23
2023-12-19T22:29:59.380Z,11.68
2023-12-19T22:32:26.819Z,12.13
2023-12-19T22:34:54.026Z,10.45
2023-12-19T22:37:21.556Z,10.25
2023-12-19T22:39:49.247Z,8.70
2023-12-19T22:42:16.808Z,9.60
2023-12-19T22:44:43.989Z,10.20
2023-12-19T22:47:11.456Z,7.72
2023-12-19T22:49:39.044Z,9.75
2023-12-19T22:52:07.231Z,8.55
2023-12-19T22:54:34.380Z,8.25
2023-12-19T22:57:01.852Z,8.43
2023-12-19T22:59:29.043Z,9.35
2023-12-19T23:01:56.670Z,8.85
2023-12-19T23:04:24.127Z,7.90
2023-12-19T23:06:52.115Z,6.63
2023-12-19T23:09:19.456Z,8.40
2023-12-19T23:11:48.077Z,8.18
2023-12-19T23:14:15.550Z,7.82
2023-12-19T23:16:43.984Z,7.05
2023-12-19T23:19:11.293Z,8.15
2023-12-19T23:21:38.929Z,8.57
2023-12-19T23:24:06.790Z,8.45
2023-12-19T23:26:34.385Z,7.38
2023-12-19T23:29:01.495Z,7.10
2023-12-19T23:31:36.805Z,7.60
2023-12-19T23:34:07.228Z,6.07
2023-12-19T23:36:34.792Z,7.80
2023-12-19T23:39:01.973Z,12.95
2023-12-19T23:41:29.446Z,8.70
2023-12-19T23:43:56.952Z,8.30
2023-12-19T23:46:24.456Z,8.85
2023-12-19T23:48:51.841Z,7.18
2023-12-19T23:51:19.358Z,10.15
2023-12-19T23:53:47.758Z,6.20
2023-12-19T23:56:15.713Z,8.82
2023-12-19T23:58:42.889Z,8.15
